Rugby, ND

11:08 PM CDT on July 30, 2016 (GMT -0500)
KNDRUGBY2 | | Change Station

Elev 1545 ft 48.36 °N, 99.99 °W | Updated 5 minutes ago

Mostly Cloudy
Mostly Cloudy
68.5 °F
Feels Like 68.5 °F
N
3.2
Wind Variable Wind from South

Today
High -- | Low -- °F
--% Chance of Precip.
Yesterday
High -- | Low -- °F
Precip. -- in
Pressure 29.88 in
Visibility 10.0 miles
Clouds Mostly Cloudy 6000 ft
Dew Point 61 °F
Humidity 77%
Rainfall 0.66 in
Snow Depth Not available.
6:13 AM 9:19 PM
Waning Crescent, 9% visible
METAR K9D7 310335Z AUTO 16008KT 10SM BKN060 20/19 A2988 RMK AO2
Pressure 29.88 in
Visibility 10.0 miles
Clouds Mostly Cloudy 6000 ft
Dew Point 61 °F
Humidity 77%
Rainfall 0.66 in
Snow Depth Not available.
6:13 AM 9:19 PM
Waning Crescent, 9% visible
METAR K9D7 310335Z AUTO 16008KT 10SM BKN060 20/19 A2988 RMK AO2

10-Day Weather Forecast

Almanac

Astronomy

Jul. 30, 2016 Rise Set
Actual Time
Civil Twilight
Nautical Twilight
Astronomical Twilight
Moon
Length of Visible Light
Length of Day
Tomorrow will be .
, % of the Moon is Illuminated

Today's Extremes

State Highs State Lows

Community

WunderPhotos

Upload Photos

1,928,745 photos uploaded!

WunderBlog® & News

Nearby

Air Quality

  Air Quality AQ Index Pollutant
Not available.

Snow Depth

Station Depth Elevation

Earthquake Activity

City Distance Mag. Time & Date
Minimum magnitude displayed is 2.5.

Coastal Water Temperatures

Place Temperature

Stations

Nearby Weather Stations

Station Location Temp. Windchill Dew Point Humidity Wind Precip. Elev Updated Type
                   

Watches & Warnings

There are currently no watches in effect.